sensor_id;sensor_type;location;lat;lon;timestamp;temperature;humidity
42683;DHT22;28293;50.930;3.464;2023-01-15T00:01:04;8.50;79.40
42683;DHT22;28293;50.930;3.464;2023-01-15T00:03:30;8.50;79.40
42683;DHT22;28293;50.930;3.464;2023-01-15T00:05:56;8.50;79.10
42683;DHT22;28293;50.930;3.464;2023-01-15T00:08:25;8.50;79.10
42683;DHT22;28293;50.930;3.464;2023-01-15T00:10:51;8.50;78.70
42683;DHT22;28293;50.930;3.464;2023-01-15T00:13:16;8.50;78.50
42683;DHT22;28293;50.930;3.464;2023-01-15T00:15:42;8.50;78.40
42683;DHT22;28293;50.930;3.464;2023-01-15T00:18:08;8.50;78.40
42683;DHT22;28293;50.930;3.464;2023-01-15T00:20:34;8.40;78.20
42683;DHT22;28293;50.930;3.464;2023-01-15T00:23:00;8.40;78.40
42683;DHT22;28293;50.930;3.464;2023-01-15T00:25:25;8.40;78.10
42683;DHT22;28293;50.930;3.464;2023-01-15T00:28:12;8.40;77.90
42683;DHT22;28293;50.930;3.464;2023-01-15T00:30:41;8.40;78.00
42683;DHT22;28293;50.930;3.464;2023-01-15T00:33:08;8.40;78.20
42683;DHT22;28293;50.930;3.464;2023-01-15T00:35:34;8.40;77.60
42683;DHT22;28293;50.930;3.464;2023-01-15T00:37:59;8.40;77.10
42683;DHT22;28293;50.930;3.464;2023-01-15T00:40:25;8.40;76.90
42683;DHT22;28293;50.930;3.464;2023-01-15T00:42:51;8.40;77.00
42683;DHT22;28293;50.930;3.464;2023-01-15T00:45:17;8.40;77.00
42683;DHT22;28293;50.930;3.464;2023-01-15T00:47:43;8.30;76.30
42683;DHT22;28293;50.930;3.464;2023-01-15T00:50:12;8.40;76.00
42683;DHT22;28293;50.930;3.464;2023-01-15T00:52:39;8.40;75.70
42683;DHT22;28293;50.930;3.464;2023-01-15T00:55:05;8.30;76.10
42683;DHT22;28293;50.930;3.464;2023-01-15T00:57:32;8.30;76.50
42683;DHT22;28293;50.930;3.464;2023-01-15T00:59:57;8.30;76.40
42683;DHT22;28293;50.930;3.464;2023-01-15T01:02:23;8.30;76.40
42683;DHT22;28293;50.930;3.464;2023-01-15T01:04:48;8.20;76.30
42683;DHT22;28293;50.930;3.464;2023-01-15T01:07:14;8.20;76.20
42683;DHT22;28293;50.930;3.464;2023-01-15T01:09:40;8.20;76.60
42683;DHT22;28293;50.930;3.464;2023-01-15T01:12:06;8.20;76.70
42683;DHT22;28293;50.930;3.464;2023-01-15T01:14:31;8.20;77.00
42683;DHT22;28293;50.930;3.464;2023-01-15T01:16:57;8.10;77.10
42683;DHT22;28293;50.930;3.464;2023-01-15T01:19:23;8.10;77.30
42683;DHT22;28293;50.930;3.464;2023-01-15T01:21:50;8.10;77.40
42683;DHT22;28293;50.930;3.464;2023-01-15T01:24:21;8.10;77.60
42683;DHT22;28293;50.930;3.464;2023-01-15T01:26:48;8.10;77.60
42683;DHT22;28293;50.930;3.464;2023-01-15T01:29:17;8.10;77.80
42683;DHT22;28293;50.930;3.464;2023-01-15T01:31:43;8.10;77.90
42683;DHT22;28293;50.930;3.464;2023-01-15T01:34:10;8.10;77.90
42683;DHT22;28293;50.930;3.464;2023-01-15T01:36:38;8.10;77.90
42683;DHT22;28293;50.930;3.464;2023-01-15T01:39:05;8.10;78.00
42683;DHT22;28293;50.930;3.464;2023-01-15T01:41:31;8.10;78.00
42683;DHT22;28293;50.930;3.464;2023-01-15T01:46:23;8.00;78.10
42683;DHT22;28293;50.930;3.464;2023-01-15T01:49:05;8.00;78.20
42683;DHT22;28293;50.930;3.464;2023-01-15T01:51:36;8.00;78.40
42683;DHT22;28293;50.930;3.464;2023-01-15T01:54:04;8.00;78.30
42683;DHT22;28293;50.930;3.464;2023-01-15T01:56:34;8.00;78.40
42683;DHT22;28293;50.930;3.464;2023-01-15T01:59:00;8.00;78.20
42683;DHT22;28293;50.930;3.464;2023-01-15T02:01:27;8.00;78.30
42683;DHT22;28293;50.930;3.464;2023-01-15T02:03:53;7.90;78.30
42683;DHT22;28293;50.930;3.464;2023-01-15T02:06:18;7.90;78.30
42683;DHT22;28293;50.930;3.464;2023-01-15T02:08:44;8.00;78.20
42683;DHT22;28293;50.930;3.464;2023-01-15T02:11:15;7.90;78.20
42683;DHT22;28293;50.930;3.464;2023-01-15T02:16:21;7.90;78.00
42683;DHT22;28293;50.930;3.464;2023-01-15T02:27:17;7.90;77.00
42683;DHT22;28293;50.930;3.464;2023-01-15T02:32:56;7.90;76.70
42683;DHT22;28293;50.930;3.464;2023-01-15T02:35:33;7.80;76.60
42683;DHT22;28293;50.930;3.464;2023-01-15T02:38:04;7.80;76.60
42683;DHT22;28293;50.930;3.464;2023-01-15T02:40:33;7.80;76.20
42683;DHT22;28293;50.930;3.464;2023-01-15T02:43:00;7.80;76.00
42683;DHT22;28293;50.930;3.464;2023-01-15T02:45:32;7.80;75.40
42683;DHT22;28293;50.930;3.464;2023-01-15T02:48:04;7.80;75.50
42683;DHT22;28293;50.930;3.464;2023-01-15T02:50:35;7.80;75.40
42683;DHT22;28293;50.930;3.464;2023-01-15T02:53:05;7.80;75.50
42683;DHT22;28293;50.930;3.464;2023-01-15T02:55:36;7.80;75.40
42683;DHT22;28293;50.930;3.464;2023-01-15T02:58:06;7.80;75.30
42683;DHT22;28293;50.930;3.464;2023-01-15T03:00:37;7.70;75.50
42683;DHT22;28293;50.930;3.464;2023-01-15T03:03:09;7.70;75.80
42683;DHT22;28293;50.930;3.464;2023-01-15T03:05:50;7.60;76.00
42683;DHT22;28293;50.930;3.464;2023-01-15T03:08:17;7.60;76.10
42683;DHT22;28293;50.930;3.464;2023-01-15T03:10:47;7.60;76.00
42683;DHT22;28293;50.930;3.464;2023-01-15T03:13:28;7.60;76.10
42683;DHT22;28293;50.930;3.464;2023-01-15T03:15:59;7.60;76.20
42683;DHT22;28293;50.930;3.464;2023-01-15T03:24:06;7.60;76.80
42683;DHT22;28293;50.930;3.464;2023-01-15T03:26:34;7.50;77.00
42683;DHT22;28293;50.930;3.464;2023-01-15T03:29:02;7.50;77.40
42683;DHT22;28293;50.930;3.464;2023-01-15T03:31:28;7.50;77.50
42683;DHT22;28293;50.930;3.464;2023-01-15T03:33:54;7.40;78.00
42683;DHT22;28293;50.930;3.464;2023-01-15T03:36:19;7.40;78.40
42683;DHT22;28293;50.930;3.464;2023-01-15T03:38:53;7.30;79.10
42683;DHT22;28293;50.930;3.464;2023-01-15T03:41:44;7.30;79.70
42683;DHT22;28293;50.930;3.464;2023-01-15T03:44:36;7.30;80.00
42683;DHT22;28293;50.930;3.464;2023-01-15T03:47:05;7.30;80.20
42683;DHT22;28293;50.930;3.464;2023-01-15T03:49:58;7.20;80.40
42683;DHT22;28293;50.930;3.464;2023-01-15T04:00:26;7.20;79.90
42683;DHT22;28293;50.930;3.464;2023-01-15T04:02:53;7.20;80.30
42683;DHT22;28293;50.930;3.464;2023-01-15T04:05:21;7.30;80.50
42683;DHT22;28293;50.930;3.464;2023-01-15T04:07:48;7.30;80.70
42683;DHT22;28293;50.930;3.464;2023-01-15T04:10:14;7.30;80.70
42683;DHT22;28293;50.930;3.464;2023-01-15T04:12:40;7.30;80.90
42683;DHT22;28293;50.930;3.464;2023-01-15T04:15:06;7.30;81.00
42683;DHT22;28293;50.930;3.464;2023-01-15T04:17:32;7.30;81.10
42683;DHT22;28293;50.930;3.464;2023-01-15T04:19:58;7.20;81.30
42683;DHT22;28293;50.930;3.464;2023-01-15T04:22:24;7.30;81.10
42683;DHT22;28293;50.930;3.464;2023-01-15T04:24:49;7.30;80.80
42683;DHT22;28293;50.930;3.464;2023-01-15T04:27:15;7.30;80.70
42683;DHT22;28293;50.930;3.464;2023-01-15T04:29:41;7.20;80.80
42683;DHT22;28293;50.930;3.464;2023-01-15T04:32:06;7.20;80.90
42683;DHT22;28293;50.930;3.464;2023-01-15T04:34:32;7.20;80.80
42683;DHT22;28293;50.930;3.464;2023-01-15T04:37:00;7.20;80.70
42683;DHT22;28293;50.930;3.464;2023-01-15T04:39:26;7.20;80.70
42683;DHT22;28293;50.930;3.464;2023-01-15T04:41:52;7.20;80.90
42683;DHT22;28293;50.930;3.464;2023-01-15T04:44:36;7.20;80.90
42683;DHT22;28293;50.930;3.464;2023-01-15T04:47:02;7.30;80.80
42683;DHT22;28293;50.930;3.464;2023-01-15T04:49:28;7.20;81.20
42683;DHT22;28293;50.930;3.464;2023-01-15T04:51:54;7.30;81.00
42683;DHT22;28293;50.930;3.464;2023-01-15T04:54:20;7.30;81.50
42683;DHT22;28293;50.930;3.464;2023-01-15T04:56:49;7.40;82.00
42683;DHT22;28293;50.930;3.464;2023-01-15T04:59:18;7.40;82.40
42683;DHT22;28293;50.930;3.464;2023-01-15T05:01:44;7.50;82.70
42683;DHT22;28293;50.930;3.464;2023-01-15T05:04:10;7.40;83.40
42683;DHT22;28293;50.930;3.464;2023-01-15T05:06:35;7.30;82.70
42683;DHT22;28293;50.930;3.464;2023-01-15T05:09:02;7.10;81.20
42683;DHT22;28293;50.930;3.464;2023-01-15T05:11:37;7.10;82.00
42683;DHT22;28293;50.930;3.464;2023-01-15T05:14:04;7.00;82.70
42683;DHT22;28293;50.930;3.464;2023-01-15T05:16:30;6.90;82.80
42683;DHT22;28293;50.930;3.464;2023-01-15T05:18:58;6.90;83.00
42683;DHT22;28293;50.930;3.464;2023-01-15T05:21:27;6.70;82.60
42683;DHT22;28293;50.930;3.464;2023-01-15T05:23:54;6.60;83.10
42683;DHT22;28293;50.930;3.464;2023-01-15T05:26:20;6.50;83.90
42683;DHT22;28293;50.930;3.464;2023-01-15T05:28:47;6.50;84.30
42683;DHT22;28293;50.930;3.464;2023-01-15T05:31:15;6.50;84.80
42683;DHT22;28293;50.930;3.464;2023-01-15T05:33:42;6.40;85.20
42683;DHT22;28293;50.930;3.464;2023-01-15T05:36:10;6.40;85.80
42683;DHT22;28293;50.930;3.464;2023-01-15T05:38:36;6.30;86.00
42683;DHT22;28293;50.930;3.464;2023-01-15T05:41:07;6.30;86.30
42683;DHT22;28293;50.930;3.464;2023-01-15T05:43:59;6.30;86.50
42683;DHT22;28293;50.930;3.464;2023-01-15T05:46:25;6.30;86.60
42683;DHT22;28293;50.930;3.464;2023-01-15T05:48:51;6.20;86.80
42683;DHT22;28293;50.930;3.464;2023-01-15T05:51:17;6.10;87.00
42683;DHT22;28293;50.930;3.464;2023-01-15T05:53:42;6.10;87.20
42683;DHT22;28293;50.930;3.464;2023-01-15T05:56:08;6.10;87.30
42683;DHT22;28293;50.930;3.464;2023-01-15T05:58:35;6.10;87.40
42683;DHT22;28293;50.930;3.464;2023-01-15T06:01:06;6.00;87.40
42683;DHT22;28293;50.930;3.464;2023-01-15T06:03:32;6.00;87.30
42683;DHT22;28293;50.930;3.464;2023-01-15T06:05:58;5.90;87.40
42683;DHT22;28293;50.930;3.464;2023-01-15T06:08:24;5.80;87.50
42683;DHT22;28293;50.930;3.464;2023-01-15T06:10:50;5.80;87.50
42683;DHT22;28293;50.930;3.464;2023-01-15T06:13:16;5.80;87.60
42683;DHT22;28293;50.930;3.464;2023-01-15T06:15:42;5.80;87.60
42683;DHT22;28293;50.930;3.464;2023-01-15T06:18:08;5.70;87.60
42683;DHT22;28293;50.930;3.464;2023-01-15T06:20:35;5.70;87.70
42683;DHT22;28293;50.930;3.464;2023-01-15T06:23:01;5.70;87.60
42683;DHT22;28293;50.930;3.464;2023-01-15T06:25:27;5.70;87.50
42683;DHT22;28293;50.930;3.464;2023-01-15T06:27:52;5.70;87.30
42683;DHT22;28293;50.930;3.464;2023-01-15T06:30:18;5.70;87.20
42683;DHT22;28293;50.930;3.464;2023-01-15T06:32:44;5.70;87.30
42683;DHT22;28293;50.930;3.464;2023-01-15T06:35:11;5.60;87.40
42683;DHT22;28293;50.930;3.464;2023-01-15T06:37:37;5.60;87.40
42683;DHT22;28293;50.930;3.464;2023-01-15T06:40:03;5.60;87.40
42683;DHT22;28293;50.930;3.464;2023-01-15T06:42:29;5.50;87.50
42683;DHT22;28293;50.930;3.464;2023-01-15T06:45:13;5.50;87.50
42683;DHT22;28293;50.930;3.464;2023-01-15T06:47:57;5.50;87.60
42683;DHT22;28293;50.930;3.464;2023-01-15T06:50:24;5.40;87.40
42683;DHT22;28293;50.930;3.464;2023-01-15T06:52:50;5.40;87.40
42683;DHT22;28293;50.930;3.464;2023-01-15T06:55:16;5.40;87.20
42683;DHT22;28293;50.930;3.464;2023-01-15T06:57:43;5.40;87.30
42683;DHT22;28293;50.930;3.464;2023-01-15T07:00:10;5.40;87.20
42683;DHT22;28293;50.930;3.464;2023-01-15T07:02:36;5.40;87.30
42683;DHT22;28293;50.930;3.464;2023-01-15T07:05:02;5.40;87.10
42683;DHT22;28293;50.930;3.464;2023-01-15T07:07:28;5.30;86.90
42683;DHT22;28293;50.930;3.464;2023-01-15T07:09:54;5.40;86.80
42683;DHT22;28293;50.930;3.464;2023-01-15T07:12:20;5.40;86.60
42683;DHT22;28293;50.930;3.464;2023-01-15T07:14:46;5.40;86.40
42683;DHT22;28293;50.930;3.464;2023-01-15T07:17:12;5.40;86.20
42683;DHT22;28293;50.930;3.464;2023-01-15T07:19:38;5.40;86.10
42683;DHT22;28293;50.930;3.464;2023-01-15T07:22:05;5.40;85.80
42683;DHT22;28293;50.930;3.464;2023-01-15T07:24:31;5.40;85.70
42683;DHT22;28293;50.930;3.464;2023-01-15T07:26:57;5.40;85.60
42683;DHT22;28293;50.930;3.464;2023-01-15T07:29:22;5.40;85.50
42683;DHT22;28293;50.930;3.464;2023-01-15T07:31:49;5.40;85.10
42683;DHT22;28293;50.930;3.464;2023-01-15T07:34:15;5.40;84.80
42683;DHT22;28293;50.930;3.464;2023-01-15T07:36:41;5.50;84.60
42683;DHT22;28293;50.930;3.464;2023-01-15T07:39:08;5.50;84.40
42683;DHT22;28293;50.930;3.464;2023-01-15T07:41:34;5.40;84.30
42683;DHT22;28293;50.930;3.464;2023-01-15T07:44:18;5.40;84.10
42683;DHT22;28293;50.930;3.464;2023-01-15T07:47:02;5.40;83.50
42683;DHT22;28293;50.930;3.464;2023-01-15T07:49:51;5.50;83.30
42683;DHT22;28293;50.930;3.464;2023-01-15T07:52:20;5.50;83.00
42683;DHT22;28293;50.930;3.464;2023-01-15T07:54:47;5.60;82.30
42683;DHT22;28293;50.930;3.464;2023-01-15T07:57:19;5.60;82.00
42683;DHT22;28293;50.930;3.464;2023-01-15T07:59:45;5.60;81.90
42683;DHT22;28293;50.930;3.464;2023-01-15T08:02:11;5.60;81.90
42683;DHT22;28293;50.930;3.464;2023-01-15T08:04:37;5.60;81.90
42683;DHT22;28293;50.930;3.464;2023-01-15T08:07:03;5.60;81.70
42683;DHT22;28293;50.930;3.464;2023-01-15T08:09:29;5.60;81.00
42683;DHT22;28293;50.930;3.464;2023-01-15T08:11:57;5.60;80.90
42683;DHT22;28293;50.930;3.464;2023-01-15T08:14:42;5.70;80.70
42683;DHT22;28293;50.930;3.464;2023-01-15T08:17:26;5.70;80.50
42683;DHT22;28293;50.930;3.464;2023-01-15T08:19:52;5.80;80.40
42683;DHT22;28293;50.930;3.464;2023-01-15T08:22:17;5.70;80.30
42683;DHT22;28293;50.930;3.464;2023-01-15T08:24:43;5.80;80.00
42683;DHT22;28293;50.930;3.464;2023-01-15T08:27:08;5.90;79.60
42683;DHT22;28293;50.930;3.464;2023-01-15T08:29:34;6.00;79.40
42683;DHT22;28293;50.930;3.464;2023-01-15T08:32:00;6.00;78.90
42683;DHT22;28293;50.930;3.464;2023-01-15T08:34:25;6.10;79.00
42683;DHT22;28293;50.930;3.464;2023-01-15T08:36:51;6.10;78.80
42683;DHT22;28293;50.930;3.464;2023-01-15T08:39:25;6.20;78.80
42683;DHT22;28293;50.930;3.464;2023-01-15T08:41:50;6.30;78.40
42683;DHT22;28293;50.930;3.464;2023-01-15T08:44:16;6.40;78.30
42683;DHT22;28293;50.930;3.464;2023-01-15T08:46:42;6.50;78.30
42683;DHT22;28293;50.930;3.464;2023-01-15T08:49:09;6.60;78.10
42683;DHT22;28293;50.930;3.464;2023-01-15T08:51:35;6.70;77.80
42683;DHT22;28293;50.930;3.464;2023-01-15T08:54:00;6.80;77.50
42683;DHT22;28293;50.930;3.464;2023-01-15T08:56:26;6.90;77.60
42683;DHT22;28293;50.930;3.464;2023-01-15T08:58:52;7.00;76.90
42683;DHT22;28293;50.930;3.464;2023-01-15T09:01:18;7.00;76.80
42683;DHT22;28293;50.930;3.464;2023-01-15T09:03:44;7.00;77.20
42683;DHT22;28293;50.930;3.464;2023-01-15T09:06:10;6.80;77.50
42683;DHT22;28293;50.930;3.464;2023-01-15T09:08:36;6.80;77.90
42683;DHT22;28293;50.930;3.464;2023-01-15T09:11:03;6.80;78.60
42683;DHT22;28293;50.930;3.464;2023-01-15T09:13:29;6.70;79.40
42683;DHT22;28293;50.930;3.464;2023-01-15T09:16:02;6.70;79.80
42683;DHT22;28293;50.930;3.464;2023-01-15T09:18:28;6.50;80.30
42683;DHT22;28293;50.930;3.464;2023-01-15T09:20:54;6.50;80.80
42683;DHT22;28293;50.930;3.464;2023-01-15T09:23:20;6.40;80.90
42683;DHT22;28293;50.930;3.464;2023-01-15T09:25:57;6.40;81.20
42683;DHT22;28293;50.930;3.464;2023-01-15T09:28:23;6.30;81.00
42683;DHT22;28293;50.930;3.464;2023-01-15T09:30:49;6.20;81.30
42683;DHT22;28293;50.930;3.464;2023-01-15T09:33:15;6.20;81.60
42683;DHT22;28293;50.930;3.464;2023-01-15T09:35:41;6.10;81.70
42683;DHT22;28293;50.930;3.464;2023-01-15T09:38:14;6.10;81.90
42683;DHT22;28293;50.930;3.464;2023-01-15T09:43:23;6.10;82.30
42683;DHT22;28293;50.930;3.464;2023-01-15T09:45:58;6.20;82.70
42683;DHT22;28293;50.930;3.464;2023-01-15T09:54:02;6.50;81.50
42683;DHT22;28293;50.930;3.464;2023-01-15T09:56:34;6.40;81.60
42683;DHT22;28293;50.930;3.464;2023-01-15T09:59:17;6.50;81.80
42683;DHT22;28293;50.930;3.464;2023-01-15T10:01:44;6.60;81.50
42683;DHT22;28293;50.930;3.464;2023-01-15T10:06:58;6.80;80.70
42683;DHT22;28293;50.930;3.464;2023-01-15T10:09:32;6.90;80.40
42683;DHT22;28293;50.930;3.464;2023-01-15T10:12:10;6.80;80.20
42683;DHT22;28293;50.930;3.464;2023-01-15T10:15:09;6.90;80.40
42683;DHT22;28293;50.930;3.464;2023-01-15T10:17:43;7.10;80.50
42683;DHT22;28293;50.930;3.464;2023-01-15T10:20:15;7.20;79.80
42683;DHT22;28293;50.930;3.464;2023-01-15T10:25:47;7.30;79.00
42683;DHT22;28293;50.930;3.464;2023-01-15T10:28:31;7.40;78.80
42683;DHT22;28293;50.930;3.464;2023-01-15T10:31:18;7.30;79.40
42683;DHT22;28293;50.930;3.464;2023-01-15T10:36:53;7.20;79.80
42683;DHT22;28293;50.930;3.464;2023-01-15T10:39:25;7.20;79.70
42683;DHT22;28293;50.930;3.464;2023-01-15T10:44:44;7.20;80.90
42683;DHT22;28293;50.930;3.464;2023-01-15T10:47:17;7.20;81.50
42683;DHT22;28293;50.930;3.464;2023-01-15T10:49:44;7.20;81.60
42683;DHT22;28293;50.930;3.464;2023-01-15T10:52:30;7.10;81.80
42683;DHT22;28293;50.930;3.464;2023-01-15T10:58:34;7.20;81.50
42683;DHT22;28293;50.930;3.464;2023-01-15T11:01:08;7.20;81.10
42683;DHT22;28293;50.930;3.464;2023-01-15T11:03:41;7.40;81.00
42683;DHT22;28293;50.930;3.464;2023-01-15T11:06:13;7.50;80.40
42683;DHT22;28293;50.930;3.464;2023-01-15T11:08:43;7.60;80.50
42683;DHT22;28293;50.930;3.464;2023-01-15T11:14:18;7.90;79.50
42683;DHT22;28293;50.930;3.464;2023-01-15T11:17:02;8.10;78.70
42683;DHT22;28293;50.930;3.464;2023-01-15T11:19:37;8.00;78.70
42683;DHT22;28293;50.930;3.464;2023-01-15T11:22:15;7.90;79.20
42683;DHT22;28293;50.930;3.464;2023-01-15T11:24:54;7.80;79.60
42683;DHT22;28293;50.930;3.464;2023-01-15T11:27:23;7.60;79.60
42683;DHT22;28293;50.930;3.464;2023-01-15T11:29:52;7.60;80.00
42683;DHT22;28293;50.930;3.464;2023-01-15T11:32:27;7.40;80.30
42683;DHT22;28293;50.930;3.464;2023-01-15T11:34:53;7.50;80.70
42683;DHT22;28293;50.930;3.464;2023-01-15T11:37:19;7.40;81.40
42683;DHT22;28293;50.930;3.464;2023-01-15T11:39:56;7.50;81.60
42683;DHT22;28293;50.930;3.464;2023-01-15T11:42:22;7.60;81.00
42683;DHT22;28293;50.930;3.464;2023-01-15T11:45:33;7.60;80.80
42683;DHT22;28293;50.930;3.464;2023-01-15T11:48:22;7.60;80.80
42683;DHT22;28293;50.930;3.464;2023-01-15T11:51:09;7.80;80.40
42683;DHT22;28293;50.930;3.464;2023-01-15T11:53:44;7.80;79.90
42683;DHT22;28293;50.930;3.464;2023-01-15T11:56:16;7.90;79.70
42683;DHT22;28293;50.930;3.464;2023-01-15T11:58:54;8.00;79.20
42683;DHT22;28293;50.930;3.464;2023-01-15T12:01:26;8.10;78.90
42683;DHT22;28293;50.930;3.464;2023-01-15T12:03:57;8.30;78.20
42683;DHT22;28293;50.930;3.464;2023-01-15T12:06:24;8.40;78.00
42683;DHT22;28293;50.930;3.464;2023-01-15T12:09:11;8.50;76.90
42683;DHT22;28293;50.930;3.464;2023-01-15T12:12:00;8.60;76.70
42683;DHT22;28293;50.930;3.464;2023-01-15T12:14:44;8.50;76.20
42683;DHT22;28293;50.930;3.464;2023-01-15T12:20:30;8.50;76.40
42683;DHT22;28293;50.930;3.464;2023-01-15T12:23:32;8.60;76.80
42683;DHT22;28293;50.930;3.464;2023-01-15T12:26:31;8.50;76.10
42683;DHT22;28293;50.930;3.464;2023-01-15T12:29:05;8.70;76.40
42683;DHT22;28293;50.930;3.464;2023-01-15T12:31:42;8.60;75.90
42683;DHT22;28293;50.930;3.464;2023-01-15T12:34:27;8.70;75.50
42683;DHT22;28293;50.930;3.464;2023-01-15T12:37:04;8.70;75.70
42683;DHT22;28293;50.930;3.464;2023-01-15T12:39:32;8.70;75.10
42683;DHT22;28293;50.930;3.464;2023-01-15T12:42:06;8.60;75.30
42683;DHT22;28293;50.930;3.464;2023-01-15T12:44:57;8.50;75.90
42683;DHT22;28293;50.930;3.464;2023-01-15T12:55:52;8.20;77.20
42683;DHT22;28293;50.930;3.464;2023-01-15T13:01:47;8.20;77.20
42683;DHT22;28293;50.930;3.464;2023-01-15T13:12:33;7.80;78.10
42683;DHT22;28293;50.930;3.464;2023-01-15T13:15:00;7.60;78.00
42683;DHT22;28293;50.930;3.464;2023-01-15T13:17:49;7.60;78.50
42683;DHT22;28293;50.930;3.464;2023-01-15T13:31:48;7.40;82.30
42683;DHT22;28293;50.930;3.464;2023-01-15T13:34:36;7.30;83.10
42683;DHT22;28293;50.930;3.464;2023-01-15T13:39:51;7.20;83.70
42683;DHT22;28293;50.930;3.464;2023-01-15T13:42:23;7.30;84.00
42683;DHT22;28293;50.930;3.464;2023-01-15T13:45:33;7.30;83.70
42683;DHT22;28293;50.930;3.464;2023-01-15T13:50:56;7.30;83.80
42683;DHT22;28293;50.930;3.464;2023-01-15T13:53:35;7.20;83.40
42683;DHT22;28293;50.930;3.464;2023-01-15T13:56:09;7.30;83.50
42683;DHT22;28293;50.930;3.464;2023-01-15T13:58:39;7.30;83.20
42683;DHT22;28293;50.930;3.464;2023-01-15T14:03:54;7.30;83.00
42683;DHT22;28293;50.930;3.464;2023-01-15T14:06:33;7.30;82.80
42683;DHT22;28293;50.930;3.464;2023-01-15T14:08:59;7.30;82.90
42683;DHT22;28293;50.930;3.464;2023-01-15T14:11:37;7.30;82.90
42683;DHT22;28293;50.930;3.464;2023-01-15T14:19:41;7.30;82.50
42683;DHT22;28293;50.930;3.464;2023-01-15T14:36:28;7.20;82.50
42683;DHT22;28293;50.930;3.464;2023-01-15T14:38:58;7.10;82.70
42683;DHT22;28293;50.930;3.464;2023-01-15T14:41:35;7.10;83.00
42683;DHT22;28293;50.930;3.464;2023-01-15T14:44:29;7.10;82.90
42683;DHT22;28293;50.930;3.464;2023-01-15T14:47:01;7.10;83.30
42683;DHT22;28293;50.930;3.464;2023-01-15T14:49:41;7.10;83.50
42683;DHT22;28293;50.930;3.464;2023-01-15T14:52:07;7.10;83.70
42683;DHT22;28293;50.930;3.464;2023-01-15T14:54:33;7.10;83.80
42683;DHT22;28293;50.930;3.464;2023-01-15T14:57:05;7.00;83.80
42683;DHT22;28293;50.930;3.464;2023-01-15T14:59:47;7.00;83.80
42683;DHT22;28293;50.930;3.464;2023-01-15T15:02:23;7.00;83.90
42683;DHT22;28293;50.930;3.464;2023-01-15T15:04:54;6.90;83.50
42683;DHT22;28293;50.930;3.464;2023-01-15T15:07:22;6.80;83.20
42683;DHT22;28293;50.930;3.464;2023-01-15T15:21:22;6.70;83.30
42683;DHT22;28293;50.930;3.464;2023-01-15T15:26:23;6.60;83.10
42683;DHT22;28293;50.930;3.464;2023-01-15T15:29:01;6.60;83.60
42683;DHT22;28293;50.930;3.464;2023-01-15T15:31:31;6.50;83.60
42683;DHT22;28293;50.930;3.464;2023-01-15T15:33:57;6.50;83.80
42683;DHT22;28293;50.930;3.464;2023-01-15T15:36:26;6.50;84.60
42683;DHT22;28293;50.930;3.464;2023-01-15T15:39:11;6.50;84.80
42683;DHT22;28293;50.930;3.464;2023-01-15T15:41:40;6.40;84.50
42683;DHT22;28293;50.930;3.464;2023-01-15T15:47:37;6.40;84.20
42683;DHT22;28293;50.930;3.464;2023-01-15T15:50:27;6.30;83.70
42683;DHT22;28293;50.930;3.464;2023-01-15T15:52:55;6.30;83.50
42683;DHT22;28293;50.930;3.464;2023-01-15T15:55:24;6.30;83.70
42683;DHT22;28293;50.930;3.464;2023-01-15T15:57:55;6.30;83.60
42683;DHT22;28293;50.930;3.464;2023-01-15T16:00:30;6.20;83.90
42683;DHT22;28293;50.930;3.464;2023-01-15T16:03:03;6.20;84.40
42683;DHT22;28293;50.930;3.464;2023-01-15T16:05:29;6.10;84.90
42683;DHT22;28293;50.930;3.464;2023-01-15T16:08:09;6.10;85.30
42683;DHT22;28293;50.930;3.464;2023-01-15T16:10:39;6.00;85.10
42683;DHT22;28293;50.930;3.464;2023-01-15T16:13:09;5.90;85.40
42683;DHT22;28293;50.930;3.464;2023-01-15T16:15:39;5.90;85.20
42683;DHT22;28293;50.930;3.464;2023-01-15T16:18:05;5.80;85.40
42683;DHT22;28293;50.930;3.464;2023-01-15T16:20:36;5.80;85.40
42683;DHT22;28293;50.930;3.464;2023-01-15T16:23:04;5.80;85.60
42683;DHT22;28293;50.930;3.464;2023-01-15T16:25:39;5.80;85.70
42683;DHT22;28293;50.930;3.464;2023-01-15T16:28:06;5.80;86.10
42683;DHT22;28293;50.930;3.464;2023-01-15T16:30:45;5.90;86.30
42683;DHT22;28293;50.930;3.464;2023-01-15T16:33:18;6.00;86.60
42683;DHT22;28293;50.930;3.464;2023-01-15T16:35:44;5.90;87.10
42683;DHT22;28293;50.930;3.464;2023-01-15T16:38:17;6.00;87.40
42683;DHT22;28293;50.930;3.464;2023-01-15T16:40:45;6.10;87.40
42683;DHT22;28293;50.930;3.464;2023-01-15T16:43:16;6.00;87.50
42683;DHT22;28293;50.930;3.464;2023-01-15T16:46:05;6.00;87.70
42683;DHT22;28293;50.930;3.464;2023-01-15T16:48:36;6.00;88.00
42683;DHT22;28293;50.930;3.464;2023-01-15T16:53:55;5.90;88.30
42683;DHT22;28293;50.930;3.464;2023-01-15T16:59:17;6.00;88.50
42683;DHT22;28293;50.930;3.464;2023-01-15T17:01:57;5.90;88.50
42683;DHT22;28293;50.930;3.464;2023-01-15T17:04:30;5.90;88.60
42683;DHT22;28293;50.930;3.464;2023-01-15T17:07:23;5.90;88.80
42683;DHT22;28293;50.930;3.464;2023-01-15T17:09:56;6.00;89.00
42683;DHT22;28293;50.930;3.464;2023-01-15T17:12:29;6.00;89.00
42683;DHT22;28293;50.930;3.464;2023-01-15T17:17:49;6.00;89.10
42683;DHT22;28293;50.930;3.464;2023-01-15T17:20:16;6.00;89.10
42683;DHT22;28293;50.930;3.464;2023-01-15T17:22:45;6.00;89.10
42683;DHT22;28293;50.930;3.464;2023-01-15T17:25:30;6.00;89.40
42683;DHT22;28293;50.930;3.464;2023-01-15T17:27:57;5.90;89.60
42683;DHT22;28293;50.930;3.464;2023-01-15T17:30:28;5.90;89.80
42683;DHT22;28293;50.930;3.464;2023-01-15T17:32:55;5.90;89.90
42683;DHT22;28293;50.930;3.464;2023-01-15T17:35:24;5.90;89.80
42683;DHT22;28293;50.930;3.464;2023-01-15T17:37:50;6.00;89.90
42683;DHT22;28293;50.930;3.464;2023-01-15T17:40:16;5.90;89.90
42683;DHT22;28293;50.930;3.464;2023-01-15T17:42:42;5.90;89.80
42683;DHT22;28293;50.930;3.464;2023-01-15T17:45:19;5.90;89.80
42683;DHT22;28293;50.930;3.464;2023-01-15T17:47:45;6.00;89.90
42683;DHT22;28293;50.930;3.464;2023-01-15T17:50:11;6.00;90.00
42683;DHT22;28293;50.930;3.464;2023-01-15T17:52:37;6.00;89.90
42683;DHT22;28293;50.930;3.464;2023-01-15T17:55:03;6.00;89.90
42683;DHT22;28293;50.930;3.464;2023-01-15T17:57:47;6.10;89.90
42683;DHT22;28293;50.930;3.464;2023-01-15T18:00:32;6.10;89.80
42683;DHT22;28293;50.930;3.464;2023-01-15T18:03:20;6.10;89.60
42683;DHT22;28293;50.930;3.464;2023-01-15T18:06:06;6.20;89.50
42683;DHT22;28293;50.930;3.464;2023-01-15T18:08:33;6.30;89.30
42683;DHT22;28293;50.930;3.464;2023-01-15T18:11:02;6.30;89.30
42683;DHT22;28293;50.930;3.464;2023-01-15T18:13:28;6.30;89.10
42683;DHT22;28293;50.930;3.464;2023-01-15T18:15:53;6.30;88.90
42683;DHT22;28293;50.930;3.464;2023-01-15T18:18:19;6.30;88.80
42683;DHT22;28293;50.930;3.464;2023-01-15T18:20:45;6.30;88.80
42683;DHT22;28293;50.930;3.464;2023-01-15T18:23:10;6.30;88.60
42683;DHT22;28293;50.930;3.464;2023-01-15T18:25:36;6.30;88.50
42683;DHT22;28293;50.930;3.464;2023-01-15T18:28:04;6.30;88.30
42683;DHT22;28293;50.930;3.464;2023-01-15T18:30:29;6.30;88.20
42683;DHT22;28293;50.930;3.464;2023-01-15T18:32:56;6.30;87.80